createdAt,value
2018-05-11T00:01:20.038Z,24.47
2018-05-11T00:03:47.782Z,24.70
2018-05-11T00:06:15.379Z,26.07
2018-05-11T00:08:42.921Z,25.50
2018-05-11T00:11:10.998Z,26.23
2018-05-11T00:13:38.537Z,25.75
2018-05-11T00:16:06.843Z,24.57
2018-05-11T00:18:34.420Z,25.45
2018-05-11T00:21:01.970Z,26.47
2018-05-11T00:23:29.605Z,26.33
2018-05-11T00:25:57.132Z,26.60
2018-05-11T00:28:27.601Z,25.85
2018-05-11T00:30:55.791Z,25.67
2018-05-11T00:33:23.608Z,26.30
2018-05-11T00:35:51.733Z,24.80
2018-05-11T00:38:19.284Z,26.37
2018-05-11T00:40:46.856Z,24.92
2018-05-11T00:43:14.398Z,24.90
2018-05-11T00:45:41.991Z,24.93
2018-05-11T00:48:09.905Z,24.20
2018-05-11T00:50:37.503Z,24.60
2018-05-11T00:53:05.052Z,23.03
2018-05-11T00:55:44.255Z,24.00
2018-05-11T00:58:11.797Z,23.75
2018-05-11T01:00:39.381Z,24.70
2018-05-11T01:03:06.944Z,25.40
2018-05-11T01:05:34.472Z,26.50
2018-05-11T01:08:02.067Z,27.50
2018-05-11T01:10:30.181Z,26.70
2018-05-11T01:12:58.183Z,25.08
2018-05-11T01:15:25.744Z,26.70
2018-05-11T01:17:53.318Z,27.53
2018-05-11T01:20:20.895Z,25.67
2018-05-11T01:22:48.449Z,25.10
2018-05-11T01:25:15.994Z,26.20
2018-05-11T01:27:43.546Z,26.10
2018-05-11T01:30:11.580Z,26.98
2018-05-11T01:32:39.152Z,26.33
2018-05-11T01:35:07.133Z,25.87
2018-05-11T01:37:35.081Z,27.27
2018-05-11T01:40:03.050Z,24.98
2018-05-11T01:42:30.616Z,26.60
2018-05-11T01:44:58.552Z,26.10
2018-05-11T01:47:26.099Z,26.00
2018-05-11T01:49:53.672Z,23.60
2018-05-11T01:52:21.251Z,23.27
2018-05-11T01:54:48.803Z,22.70
2018-05-11T01:57:16.395Z,24.03
2018-05-11T01:59:44.379Z,21.30
2018-05-11T02:02:12.362Z,21.80
2018-05-11T02:04:39.907Z,20.23
2018-05-11T02:07:07.515Z,19.17
2018-05-11T02:09:35.052Z,18.83
2018-05-11T02:12:02.672Z,19.42
2018-05-11T02:14:30.276Z,19.80
2018-05-11T02:16:57.885Z,18.03
2018-05-11T02:19:25.865Z,19.10
2018-05-11T02:21:53.793Z,17.70
2018-05-11T02:24:21.329Z,19.00
2018-05-11T02:26:48.906Z,16.95
2018-05-11T02:29:16.448Z,16.20
2018-05-11T02:31:43.993Z,16.47
2018-05-11T02:34:11.560Z,17.70
2018-05-11T02:36:39.128Z,17.73
2018-05-11T02:39:06.672Z,16.90
2018-05-11T02:41:34.735Z,16.98
2018-05-11T02:44:02.339Z,16.53
2018-05-11T02:46:29.918Z,16.55
2018-05-11T02:48:58.313Z,16.97
2018-05-11T02:51:27.126Z,17.00
2018-05-11T02:53:54.875Z,18.07
2018-05-11T02:56:22.481Z,17.00
2018-05-11T02:58:50.468Z,17.00
2018-05-11T03:01:18.046Z,17.10
2018-05-11T03:03:46.140Z,17.03
2018-05-11T03:06:15.211Z,17.40
2018-05-11T03:08:44.003Z,17.70
2018-05-11T03:11:12.771Z,17.60
2018-05-11T03:13:40.415Z,19.30
2018-05-11T03:16:08.616Z,17.37
2018-05-11T03:18:39.484Z,20.47
2018-05-11T03:21:08.128Z,18.70
2018-05-11T03:23:36.335Z,19.90
2018-05-11T03:26:04.221Z,21.25
2018-05-11T03:28:33.791Z,21.60
2018-05-11T03:31:02.163Z,20.70
2018-05-11T03:33:30.757Z,20.55
2018-05-11T03:35:58.365Z,21.20
2018-05-11T03:38:26.600Z,22.50
2018-05-11T03:40:54.809Z,21.37
2018-05-11T03:43:24.022Z,21.50
2018-05-11T03:45:53.880Z,21.08
2018-05-11T03:48:21.470Z,22.77
2018-05-11T03:50:49.087Z,21.33
2018-05-11T03:53:17.452Z,22.00
2018-05-11T03:55:45.075Z,22.17
2018-05-11T03:58:12.647Z,21.30
2018-05-11T04:00:41.800Z,21.43
2018-05-11T04:03:29.257Z,23.12
2018-05-11T04:06:04.256Z,21.05
2018-05-11T04:08:43.475Z,22.43
2018-05-11T04:11:11.689Z,21.87
2018-05-11T04:13:39.733Z,21.27
2018-05-11T04:16:08.040Z,22.40
2018-05-11T04:18:36.047Z,22.50
2018-05-11T04:21:04.160Z,21.37
2018-05-11T04:23:32.931Z,21.95
2018-05-11T04:26:01.739Z,18.95
2018-05-11T04:28:30.106Z,20.00
2018-05-11T04:30:58.621Z,20.03
2018-05-11T04:33:26.941Z,18.80
2018-05-11T04:35:55.349Z,19.67
2018-05-11T04:38:23.719Z,17.40
2018-05-11T04:40:52.084Z,17.93
2018-05-11T04:43:20.480Z,18.35
2018-05-11T04:45:49.214Z,15.90
2018-05-11T04:48:17.380Z,15.70
2018-05-11T04:50:45.652Z,15.07
2018-05-11T04:53:14.061Z,14.50
2018-05-11T04:55:42.656Z,13.77
2018-05-11T04:58:11.038Z,14.00
2018-05-11T05:00:39.062Z,15.30
2018-05-11T05:03:07.511Z,13.37
2018-05-11T05:05:35.890Z,12.20
2018-05-11T05:08:04.339Z,13.00
2018-05-11T05:10:32.765Z,13.30
2018-05-11T05:13:01.203Z,12.93
2018-05-11T05:15:29.736Z,13.43
2018-05-11T05:18:01.198Z,12.23
2018-05-11T05:20:29.313Z,12.30
2018-05-11T05:22:57.701Z,13.80
2018-05-11T05:25:25.795Z,13.00
2018-05-11T05:27:54.318Z,16.05
2018-05-11T05:30:23.728Z,14.77
2018-05-11T05:32:52.247Z,14.50
2018-05-11T05:35:20.567Z,13.98
2018-05-11T05:37:48.855Z,16.07
2018-05-11T05:40:17.514Z,14.20
2018-05-11T05:42:45.768Z,15.97
2018-05-11T05:45:13.617Z,14.57
2018-05-11T05:47:41.893Z,15.13
2018-05-11T05:50:10.431Z,13.70
2018-05-11T05:52:38.624Z,16.63
2018-05-11T05:55:07.197Z,16.07
2018-05-11T05:57:35.521Z,14.67
2018-05-11T06:00:03.749Z,15.90
2018-05-11T06:02:32.138Z,14.03
2018-05-11T06:05:00.097Z,15.02
2018-05-11T06:07:28.451Z,14.60
2018-05-11T06:09:56.541Z,14.63
2018-05-11T06:12:24.494Z,14.13
2018-05-11T06:14:52.659Z,15.50
2018-05-11T06:17:21.101Z,16.10
2018-05-11T06:19:49.155Z,14.35
2018-05-11T06:22:17.116Z,15.48
2018-05-11T06:24:45.438Z,14.15
2018-05-11T06:27:13.727Z,14.00
2018-05-11T06:29:42.033Z,13.50
2018-05-11T06:32:10.758Z,14.17
2018-05-11T06:34:38.706Z,15.23
2018-05-11T06:37:07.149Z,13.95
2018-05-11T06:39:34.951Z,14.35
2018-05-11T06:42:02.639Z,15.23
2018-05-11T06:44:30.257Z,14.17
2018-05-11T06:46:57.988Z,14.90
2018-05-11T06:49:26.300Z,16.27
2018-05-11T06:51:54.534Z,14.53
2018-05-11T06:54:22.872Z,15.65
2018-05-11T06:56:51.305Z,14.43
2018-05-11T06:59:19.067Z,12.73
2018-05-11T07:01:47.796Z,14.03
2018-05-11T07:04:16.103Z,12.17
2018-05-11T07:06:44.459Z,14.40
2018-05-11T07:09:12.380Z,14.00
2018-05-11T07:11:42.062Z,14.45
2018-05-11T07:14:11.003Z,12.30
2018-05-11T07:16:38.824Z,14.52
2018-05-11T07:19:06.933Z,14.23
2018-05-11T07:21:34.477Z,13.70
2018-05-11T07:24:02.071Z,13.40
2018-05-11T07:26:29.631Z,12.23
2018-05-11T07:28:57.181Z,13.60
2018-05-11T07:31:24.772Z,13.75
2018-05-11T07:33:53.037Z,14.45
2018-05-11T07:36:21.323Z,13.43
2018-05-11T07:38:49.444Z,13.70
2018-05-11T07:41:17.435Z,13.50
2018-05-11T07:43:45.713Z,13.63
2018-05-11T07:46:14.517Z,12.80
2018-05-11T07:48:42.723Z,13.03
2018-05-11T07:51:10.631Z,12.87
2018-05-11T07:53:39.135Z,13.33
2018-05-11T07:56:07.397Z,13.85
2018-05-11T07:58:35.385Z,13.77
2018-05-11T08:01:03.802Z,13.67
2018-05-11T08:03:32.058Z,12.83
2018-05-11T08:06:00.634Z,12.98
2018-05-11T08:08:28.617Z,12.40
2018-05-11T08:10:57.187Z,13.07
2018-05-11T08:13:25.204Z,12.63
2018-05-11T08:15:53.617Z,13.30
2018-05-11T08:18:21.361Z,11.77
2018-05-11T08:20:49.049Z,13.10
2018-05-11T08:23:17.346Z,12.30
2018-05-11T08:25:45.516Z,12.33
2018-05-11T08:28:13.669Z,12.70
2018-05-11T08:30:42.383Z,12.35
2018-05-11T08:33:10.939Z,13.57
2018-05-11T08:35:38.876Z,12.97
2018-05-11T08:38:06.832Z,12.43
2018-05-11T08:40:35.135Z,12.80
2018-05-11T08:43:03.377Z,12.30
2018-05-11T08:45:31.688Z,13.50
2018-05-11T08:47:59.338Z,12.90
2018-05-11T08:50:27.561Z,13.50
2018-05-11T08:52:55.383Z,12.40
2018-05-11T08:55:24.154Z,11.95
2018-05-11T08:57:52.507Z,12.52
2018-05-11T09:00:22.121Z,12.27
2018-05-11T09:02:50.798Z,12.37
2018-05-11T09:05:19.245Z,13.17
2018-05-11T09:07:47.033Z,10.87
2018-05-11T09:10:15.157Z,11.90
2018-05-11T09:12:43.659Z,12.55
2018-05-11T09:15:11.976Z,12.70
2018-05-11T09:17:41.422Z,12.60
2018-05-11T09:20:09.818Z,11.93
2018-05-11T09:22:38.411Z,11.53
2018-05-11T09:25:06.398Z,10.70
2018-05-11T09:27:34.467Z,10.63
2018-05-11T09:30:02.838Z,9.90
2018-05-11T09:32:30.938Z,9.87
2018-05-11T09:34:59.162Z,9.90
2018-05-11T09:37:27.443Z,9.43
2018-05-11T09:39:55.822Z,9.75
2018-05-11T09:42:24.199Z,9.50
2018-05-11T09:44:52.244Z,10.40
2018-05-11T09:47:20.550Z,8.40
2018-05-11T09:49:48.564Z,8.83
2018-05-11T09:52:16.984Z,10.30
2018-05-11T09:54:44.743Z,9.00
2018-05-11T09:57:13.097Z,9.33
2018-05-11T09:59:41.111Z,9.27
2018-05-11T10:02:08.815Z,7.70
2018-05-11T10:04:37.055Z,8.30
2018-05-11T10:07:05.447Z,8.67
2018-05-11T10:09:33.652Z,9.20
2018-05-11T10:12:01.507Z,8.83
2018-05-11T10:14:29.702Z,7.65
2018-05-11T10:16:57.582Z,8.77
2018-05-11T10:19:25.303Z,7.37
2018-05-11T10:21:53.096Z,7.25
2018-05-11T10:24:20.676Z,7.37
2018-05-11T10:26:49.051Z,7.07
2018-05-11T10:29:17.028Z,8.30
2018-05-11T10:31:44.944Z,7.28
2018-05-11T10:34:12.980Z,8.00
2018-05-11T10:36:41.075Z,7.85
2018-05-11T10:39:09.315Z,7.60
2018-05-11T10:41:37.730Z,8.23
2018-05-11T10:44:06.110Z,8.17
2018-05-11T10:46:33.941Z,8.00
2018-05-11T10:49:02.486Z,8.77
2018-05-11T10:51:30.563Z,6.87
2018-05-11T10:53:59.084Z,7.20
2018-05-11T10:56:27.215Z,7.93
2018-05-11T10:58:55.627Z,5.95
2018-05-11T11:01:23.338Z,5.77
2018-05-11T11:03:51.429Z,5.78
2018-05-11T11:06:19.703Z,6.13
2018-05-11T11:08:47.579Z,5.80
2018-05-11T11:11:15.205Z,6.57
2018-05-11T11:13:51.409Z,6.83
2018-05-11T11:16:50.946Z,6.70
2018-05-11T11:19:19.440Z,5.80
2018-05-11T11:22:03.069Z,6.50
2018-05-11T11:24:35.899Z,6.30
2018-05-11T11:27:09.380Z,6.40
2018-05-11T11:29:45.666Z,5.78
2018-05-11T11:32:19.824Z,5.86
2018-05-11T11:34:50.402Z,5.37
2018-05-11T11:37:24.533Z,5.30
2018-05-11T11:39:57.288Z,5.57
2018-05-11T11:42:25.913Z,4.57
2018-05-11T11:44:54.561Z,4.80
2018-05-11T11:50:35.092Z,4.40
2018-05-11T11:53:02.665Z,4.20
2018-05-11T11:55:30.239Z,5.07
2018-05-11T11:57:58.269Z,4.60
2018-05-11T12:00:25.817Z,5.17
2018-05-11T12:02:53.393Z,4.87
2018-05-11T12:05:20.961Z,5.27
2018-05-11T12:07:48.552Z,4.60
2018-05-11T12:10:16.185Z,3.80
2018-05-11T12:12:43.763Z,4.53
2018-05-11T12:15:11.365Z,4.73
2018-05-11T12:17:38.948Z,4.73
2018-05-11T12:20:06.550Z,5.03
2018-05-11T12:22:40.203Z,5.14
2018-05-11T12:25:08.628Z,5.62
2018-05-11T12:27:37.180Z,4.80
2018-05-11T12:30:05.426Z,5.60
2018-05-11T12:32:33.983Z,5.63
2018-05-11T12:35:01.728Z,5.90
2018-05-11T12:37:29.744Z,4.83
2018-05-11T12:39:57.359Z,5.35
2018-05-11T12:42:26.176Z,5.10
2018-05-11T12:44:56.321Z,5.23
2018-05-11T12:47:38.966Z,5.73
2018-05-11T12:50:06.574Z,4.97
2018-05-11T12:52:34.188Z,4.70
2018-05-11T12:55:01.745Z,5.97
2018-05-11T12:57:29.359Z,6.60
2018-05-11T12:59:57.001Z,6.73
2018-05-11T13:02:24.925Z,6.13
2018-05-11T13:04:52.559Z,5.70
2018-05-11T13:07:20.160Z,6.20
2018-05-11T13:09:47.773Z,5.85
2018-05-11T13:12:15.315Z,5.03
2018-05-11T13:14:42.842Z,5.30
2018-05-11T13:17:17.857Z,5.22
2018-05-11T13:19:45.390Z,4.77
2018-05-11T13:22:12.937Z,5.33
2018-05-11T13:24:40.485Z,5.60
2018-05-11T13:27:08.086Z,5.10
2018-05-11T13:29:35.610Z,5.87
2018-05-11T13:32:03.203Z,5.10
2018-05-11T13:34:30.749Z,5.55
2018-05-11T13:36:58.342Z,5.20
2018-05-11T13:39:26.821Z,5.70
2018-05-11T13:41:54.403Z,5.37
2018-05-11T13:44:23.094Z,6.03
2018-05-11T13:46:51.894Z,5.67
2018-05-11T13:49:19.882Z,5.67
2018-05-11T13:51:47.442Z,5.70
2018-05-11T13:54:14.999Z,5.07
2018-05-11T13:56:42.577Z,6.20
2018-05-11T13:59:10.161Z,5.67
2018-05-11T14:01:37.704Z,5.23
2018-05-11T14:04:05.304Z,5.60
2018-05-11T14:06:32.862Z,5.85
2018-05-11T14:09:00.417Z,5.20
2018-05-11T14:11:28.381Z,5.50
2018-05-11T14:13:57.788Z,5.57
2018-05-11T14:16:26.210Z,5.87
2018-05-11T14:18:53.747Z,5.43
2018-05-11T14:21:21.811Z,4.90
2018-05-11T14:23:49.756Z,5.47
2018-05-11T14:26:17.354Z,5.17
2018-05-11T14:28:45.308Z,6.13
2018-05-11T14:31:13.281Z,5.43
2018-05-11T14:33:41.129Z,5.97
2018-05-11T14:36:08.739Z,5.80
2018-05-11T14:38:36.322Z,5.10
2018-05-11T14:41:04.800Z,5.27
2018-05-11T14:43:32.340Z,5.10
2018-05-11T14:45:59.880Z,5.40
2018-05-11T14:48:29.227Z,5.67
2018-05-11T14:50:56.850Z,6.10
2018-05-11T14:53:29.041Z,5.77
2018-05-11T14:55:56.855Z,6.60
2018-05-11T14:58:24.537Z,6.50
2018-05-11T15:00:54.464Z,6.07
2018-05-11T15:03:22.099Z,6.00
2018-05-11T15:05:49.797Z,6.22
2018-05-11T15:08:17.532Z,5.43
2018-05-11T15:10:45.481Z,6.90
2018-05-11T15:13:13.653Z,6.12
2018-05-11T15:15:41.389Z,6.60
2018-05-11T15:18:14.833Z,5.85
2018-05-11T15:20:42.765Z,5.67
2018-05-11T15:23:10.399Z,6.40
2018-05-11T15:25:37.973Z,8.00
2018-05-11T15:28:05.622Z,6.43
2018-05-11T15:30:33.179Z,6.45
2018-05-11T15:33:00.772Z,6.00
2018-05-11T15:35:28.340Z,5.90
2018-05-11T15:37:55.913Z,6.50
2018-05-11T15:40:24.293Z,6.03
2018-05-11T15:42:51.833Z,5.97
2018-05-11T15:45:19.392Z,6.28
2018-05-11T15:47:46.978Z,6.40
2018-05-11T15:50:15.087Z,6.50
2018-05-11T15:52:42.676Z,5.82
2018-05-11T15:55:10.442Z,6.23
2018-05-11T15:57:39.377Z,5.90
2018-05-11T16:00:07.347Z,5.60
2018-05-11T16:02:35.332Z,6.40
2018-05-11T16:05:02.923Z,6.60
2018-05-11T16:07:30.556Z,6.10
2018-05-11T16:09:58.716Z,6.90
2018-05-11T16:12:26.281Z,6.30
2018-05-11T16:14:53.927Z,7.20
2018-05-11T16:17:21.484Z,7.97
2018-05-11T16:19:49.458Z,7.70
2018-05-11T16:22:17.380Z,6.70
2018-05-11T16:24:44.984Z,7.00
2018-05-11T16:27:12.964Z,7.10
2018-05-11T16:29:40.657Z,7.18
2018-05-11T16:32:08.215Z,6.22
2018-05-11T16:34:35.846Z,6.12
2018-05-11T16:37:03.485Z,5.93
2018-05-11T16:39:31.110Z,7.13
2018-05-11T16:41:58.683Z,6.03
2018-05-11T16:44:26.252Z,6.30
2018-05-11T16:46:53.863Z,6.28
2018-05-11T16:49:21.414Z,6.47
2018-05-11T16:51:50.265Z,6.50
2018-05-11T16:54:17.844Z,6.60
2018-05-11T16:56:46.283Z,6.47
2018-05-11T16:59:17.522Z,6.80
2018-05-11T17:01:45.108Z,6.47
2018-05-11T17:04:12.689Z,5.90
2018-05-11T17:06:40.668Z,6.27
2018-05-11T17:09:08.698Z,6.10
2018-05-11T17:11:36.301Z,6.27
2018-05-11T17:14:04.335Z,6.33
2018-05-11T17:16:31.977Z,6.68
2018-05-11T17:18:59.514Z,6.80
2018-05-11T17:21:27.076Z,6.90
2018-05-11T17:23:54.661Z,6.70
2018-05-11T17:26:22.281Z,7.00
2018-05-11T17:28:49.931Z,7.20
2018-05-11T17:31:17.890Z,6.37
2018-05-11T17:33:46.027Z,6.17
2018-05-11T17:36:13.576Z,6.50
2018-05-11T17:38:41.156Z,5.63
2018-05-11T17:41:08.756Z,6.80
2018-05-11T17:43:36.691Z,6.90
2018-05-11T17:46:04.836Z,6.43
2018-05-11T17:48:32.472Z,6.30
2018-05-11T17:51:00.001Z,6.90
2018-05-11T17:53:27.969Z,6.43
2018-05-11T17:55:55.509Z,6.43
2018-05-11T17:58:23.035Z,6.77
2018-05-11T18:00:50.622Z,6.35
2018-05-11T18:03:18.180Z,6.73
2018-05-11T18:05:45.736Z,6.23
2018-05-11T18:08:13.291Z,11.83
2018-05-11T18:10:40.861Z,9.70
2018-05-11T18:13:08.666Z,8.27
2018-05-11T18:15:36.634Z,7.20
2018-05-11T18:18:04.631Z,6.70
2018-05-11T18:20:32.270Z,6.43
2018-05-11T18:23:00.189Z,6.73
2018-05-11T18:25:28.192Z,5.90
2018-05-11T18:27:56.533Z,6.67
2018-05-11T18:30:24.199Z,6.80
2018-05-11T18:32:53.314Z,6.23
2018-05-11T18:35:20.969Z,7.05
2018-05-11T18:37:48.533Z,5.30
2018-05-11T18:40:16.223Z,6.27
2018-05-11T18:42:43.802Z,5.70
2018-05-11T18:45:11.365Z,6.20
2018-05-11T18:47:39.026Z,6.30
2018-05-11T18:50:06.718Z,6.27
2018-05-11T18:52:46.308Z,5.93
2018-05-11T18:55:14.014Z,6.47
2018-05-11T18:57:41.542Z,7.10
2018-05-11T19:00:09.554Z,6.07
2018-05-11T19:02:38.398Z,6.90
2018-05-11T19:05:08.232Z,5.97
2018-05-11T19:07:35.895Z,5.87
2018-05-11T19:10:03.470Z,6.50
2018-05-11T19:12:31.765Z,7.30
2018-05-11T19:14:59.412Z,6.60
2018-05-11T19:17:26.961Z,6.63
2018-05-11T19:19:54.546Z,6.80
2018-05-11T19:22:22.520Z,6.60
2018-05-11T19:24:50.103Z,5.93
2018-05-11T19:27:17.908Z,6.60
2018-05-11T19:29:45.667Z,6.40
2018-05-11T19:32:13.204Z,5.90
2018-05-11T19:34:40.800Z,7.40
2018-05-11T19:37:08.397Z,6.50
2018-05-11T19:39:35.966Z,6.73
2018-05-11T19:42:04.532Z,6.17
2018-05-11T19:44:33.049Z,6.77
2018-05-11T19:47:01.374Z,6.50
2018-05-11T19:49:29.503Z,6.50
2018-05-11T19:51:57.072Z,6.67
2018-05-11T19:54:24.646Z,6.47
2018-05-11T19:56:52.239Z,6.27
2018-05-11T19:59:20.205Z,5.83
2018-05-11T20:01:47.772Z,6.00
2018-05-11T20:04:15.382Z,6.43
2018-05-11T20:06:44.172Z,6.75
2018-05-11T20:09:11.739Z,7.20
2018-05-11T20:11:41.071Z,6.20
2018-05-11T20:14:09.318Z,6.60
2018-05-11T20:16:37.543Z,6.50
2018-05-11T20:19:05.126Z,6.50
2018-05-11T20:21:34.676Z,6.68
2018-05-11T20:24:02.237Z,6.80
2018-05-11T20:26:29.770Z,7.20
2018-05-11T20:28:57.357Z,7.20
2018-05-11T20:31:25.019Z,8.68
2018-05-11T20:33:52.745Z,7.83
2018-05-11T20:36:20.328Z,7.50
2018-05-11T20:38:47.889Z,7.32
2018-05-11T20:41:15.466Z,8.60
2018-05-11T20:43:43.054Z,7.10
2018-05-11T20:46:11.975Z,7.75
2018-05-11T20:48:39.581Z,8.20
2018-05-11T20:51:07.155Z,7.90
2018-05-11T20:53:35.969Z,8.20
2018-05-11T20:56:04.781Z,7.35
2018-05-11T20:58:32.471Z,7.10
2018-05-11T21:03:39.518Z,9.27
2018-05-11T21:06:07.085Z,8.63
2018-05-11T21:08:35.117Z,8.60
2018-05-11T21:11:02.838Z,9.27
2018-05-11T21:13:30.406Z,9.30
2018-05-11T21:15:58.090Z,8.30
2018-05-11T21:18:25.655Z,8.80
2018-05-11T21:20:53.501Z,8.80
2018-05-11T21:23:21.108Z,9.23
2018-05-11T21:25:48.731Z,9.73
2018-05-11T21:28:16.339Z,9.20
2018-05-11T21:30:47.282Z,9.60
2018-05-11T21:33:15.135Z,9.67
2018-05-11T21:35:43.295Z,9.40
2018-05-11T21:38:10.864Z,8.77
2018-05-11T21:40:38.440Z,9.37
2018-05-11T21:43:06.026Z,9.63
2018-05-11T21:45:34.320Z,9.63
2018-05-11T21:48:01.908Z,9.98
2018-05-11T21:50:30.089Z,9.10
2018-05-11T21:52:57.563Z,9.50
2018-05-11T21:55:25.629Z,10.53
2018-05-11T21:57:53.195Z,9.87
2018-05-11T22:00:21.578Z,9.93
2018-05-11T22:02:51.818Z,10.10
2018-05-11T22:05:19.708Z,9.55
2018-05-11T22:07:47.288Z,9.90
2018-05-11T22:10:15.011Z,9.53
2018-05-11T22:12:43.598Z,9.82
2018-05-11T22:15:11.201Z,8.67
2018-05-11T22:17:38.778Z,11.07
2018-05-11T22:20:06.560Z,10.47
2018-05-11T22:22:35.256Z,10.10
2018-05-11T22:25:03.582Z,8.33
2018-05-11T22:27:31.185Z,10.10
2018-05-11T22:29:59.537Z,9.60
2018-05-11T22:32:28.304Z,9.00
2018-05-11T22:34:55.868Z,9.88
2018-05-11T22:37:24.744Z,10.50
2018-05-11T22:39:53.153Z,9.88
2018-05-11T22:42:20.743Z,9.53
2018-05-11T22:44:48.277Z,9.23
2018-05-11T22:47:15.882Z,10.03
2018-05-11T22:49:43.508Z,10.70
2018-05-11T22:52:11.115Z,9.63
2018-05-11T22:54:39.853Z,9.63
2018-05-11T22:57:07.409Z,9.70
2018-05-11T22:59:34.976Z,9.17
2018-05-11T23:02:02.499Z,10.07
2018-05-11T23:04:31.176Z,11.47
2018-05-11T23:06:58.948Z,10.37
2018-05-11T23:09:26.515Z,8.98
2018-05-11T23:11:54.073Z,9.73
2018-05-11T23:14:21.648Z,11.13
2018-05-11T23:16:49.213Z,9.93
2018-05-11T23:19:18.745Z,10.40
2018-05-11T23:21:46.335Z,10.63
2018-05-11T23:24:13.875Z,10.75
2018-05-11T23:26:41.828Z,11.23
2018-05-11T23:29:09.356Z,10.80
2018-05-11T23:31:36.960Z,10.10
2018-05-11T23:34:05.183Z,11.17
2018-05-11T23:36:32.801Z,11.27
2018-05-11T23:39:00.759Z,10.63
2018-05-11T23:41:28.304Z,11.07
2018-05-11T23:43:55.867Z,11.40
2018-05-11T23:46:23.437Z,10.27
2018-05-11T23:48:51.432Z,10.23
2018-05-11T23:51:18.996Z,11.07
2018-05-11T23:53:46.545Z,10.77
2018-05-11T23:56:14.106Z,11.70
2018-05-11T23:58:41.679Z,12.15
